Time;durP1;ratioP1;P1;durP2;ratioP2;P2;SDS_P1;SDS_P2;PMS_P1;PMS_P2;Temp;Humidity;BMP_temperature;BMP_pressure;BME280_temperature;BME280_humidity;BME280_pressure;Samples;Min_cycle;Max_cycle;Signal;HPM_P1;HPM_P2
2023/07/01 00:00:58;;;;;;;98.00;57.70;;;16.70;99.90;;;;;;5112194;28;20035;-55
2023/07/01 00:03:23;;;;;;;13.05;8.65;;;16.70;99.90;;;;;;5112091;28;20031;-55
2023/07/01 00:05:49;;;;;;;4.18;2.60;;;16.70;99.90;;;;;;5111333;28;20053;-54
2023/07/01 00:08:15;;;;;;;5.35;1.85;;;16.70;99.90;;;;;;5093884;28;20101;-55
2023/07/01 00:10:40;;;;;;;3.17;1.70;;;16.70;99.90;;;;;;5112122;28;20059;-54
2023/07/01 00:13:06;;;;;;;4.10;2.53;;;16.70;99.90;;;;;;5093814;28;20023;-53
2023/07/01 00:15:32;;;;;;;4.03;2.00;;;16.70;99.90;;;;;;5111154;28;20055;-56
2023/07/01 00:17:57;;;;;;;5.28;2.42;;;16.70;99.90;;;;;;5112065;28;20483;-56
2023/07/01 00:20:26;;;;;;;7.68;2.13;;;16.60;99.90;;;;;;5111941;28;20094;-56
2023/07/01 00:22:52;;;;;;;6.70;2.45;;;16.60;99.90;;;;;;5111989;28;20023;-56
2023/07/01 00:25:18;;;;;;;3.95;1.75;;;16.50;99.90;;;;;;5092878;28;20072;-57
2023/07/01 00:27:43;;;;;;;4.03;2.42;;;16.40;99.90;;;;;;5093651;28;20020;-57
2023/07/01 00:30:09;;;;;;;2.78;2.10;;;16.40;99.90;;;;;;5110754;28;20099;-55
2023/07/01 00:32:35;;;;;;;4.20;1.95;;;16.40;99.90;;;;;;5111783;28;20395;-53
2023/07/01 00:35:00;;;;;;;3.25;2.08;;;16.40;99.90;;;;;;5111118;28;20463;-53
2023/07/01 00:37:27;;;;;;;3.20;2.00;;;16.40;99.90;;;;;;5111779;28;20020;-55
2023/07/01 00:39:53;;;;;;;6.45;1.90;;;16.30;99.90;;;;;;5111895;28;20030;-55
2023/07/01 00:42:18;;;;;;;8.32;2.50;;;16.30;99.90;;;;;;5111915;28;20031;-55
2023/07/01 00:44:44;;;;;;;5.50;2.50;;;16.30;99.90;;;;;;5093997;28;20419;-57
2023/07/01 00:47:10;;;;;;;1.70;1.60;;;16.30;99.90;;;;;;5115688;28;20031;-54
2023/07/01 00:49:37;;;;;;;2.38;2.20;;;16.30;99.90;;;;;;5116014;28;20019;-57
2023/07/01 00:52:04;;;;;;;5.25;2.30;;;16.20;99.90;;;;;;5115958;28;20023;-55
2023/07/01 00:54:30;;;;;;;2.80;2.30;;;16.20;99.90;;;;;;5115371;28;20119;-56
2023/07/01 00:56:55;;;;;;;4.75;2.47;;;16.20;99.90;;;;;;5115291;28;20051;-58
2023/07/01 00:59:21;;;;;;;5.65;2.05;;;16.20;99.90;;;;;;5115863;28;20024;-56
2023/07/01 01:01:50;;;;;;;2.13;1.60;;;16.10;99.90;;;;;;5115829;28;20033;-55
2023/07/01 01:04:29;;;;;;;3.00;2.00;;;16.10;99.90;;;;;;5096844;28;20030;-57
2023/07/01 01:07:01;;;;;;;5.05;2.40;;;16.10;99.90;;;;;;5115202;28;20020;-56
2023/07/01 01:09:26;;;;;;;4.47;2.00;;;16.10;99.90;;;;;;5097399;28;20106;-56
2023/07/01 01:11:54;;;;;;;5.22;2.25;;;16.10;99.90;;;;;;5115525;28;20486;-56
2023/07/01 01:14:20;;;;;;;1.85;1.75;;;16.10;99.90;;;;;;5114866;28;20055;-58
2023/07/01 01:16:47;;;;;;;4.82;2.00;;;16.10;99.90;;;;;;5114846;28;20032;-56
2023/07/01 01:19:45;;;;;;;3.15;1.90;;;16.00;99.90;;;;;;5115408;28;20514;-56
2023/07/01 01:22:24;;;;;;;4.30;2.17;;;16.10;99.90;;;;;;5114552;28;20441;-55
2023/07/01 01:24:54;;;;;;;2.13;1.95;;;16.00;99.90;;;;;;5114608;28;20070;-57
2023/07/01 01:27:27;;;;;;;2.65;2.13;;;16.00;99.90;;;;;;5114905;28;20081;-55
2023/07/01 01:29:53;;;;;;;3.42;1.95;;;16.00;99.90;;;;;;5114605;28;20202;-52
2023/07/01 01:32:18;;;;;;;6.05;2.67;;;15.90;99.90;;;;;;5096803;28;20077;-56
2023/07/01 01:34:44;;;;;;;2.80;2.28;;;15.80;99.90;;;;;;5114552;28;20429;-57
2023/07/01 01:37:45;;;;;;;6.13;2.20;;;15.80;99.90;;;;;;5114925;28;20364;-55
2023/07/01 01:40:25;;;;;;;8.00;2.60;;;15.80;99.90;;;;;;5096623;28;20512;-56
2023/07/01 01:42:58;;;;;;;2.85;2.30;;;15.80;99.90;;;;;;5114953;28;20027;-57
2023/07/01 01:45:24;;;;;;;2.72;2.22;;;15.70;99.90;;;;;;5095694;28;20028;-59
2023/07/01 01:47:50;;;;;;;3.70;2.67;;;15.70;99.90;;;;;;5114825;28;20102;-58
2023/07/01 01:50:19;;;;;;;10.63;2.65;;;15.70;99.90;;;;;;5114703;28;20478;-54
2023/07/01 01:52:48;;;;;;;4.32;2.83;;;16.00;99.90;;;;;;5114753;28;20069;-57
2023/07/01 01:55:15;;;;;;;7.00;3.08;;;15.60;99.90;;;;;;5113883;28;20034;-56
2023/07/01 01:57:41;;;;;;;7.70;3.70;;;15.60;99.90;;;;;;5113656;28;20026;-54
2023/07/01 02:00:08;;;;;;;4.30;3.13;;;15.50;99.90;;;;;;5096327;28;20487;-54
2023/07/01 02:02:35;;;;;;;8.95;3.15;;;15.40;99.90;;;;;;5106146;28;20027;-55
2023/07/01 02:05:01;;;;;;;5.40;3.20;;;15.50;99.90;;;;;;5093261;28;20024;-55
2023/07/01 02:07:26;;;;;;;2.85;2.65;;;15.40;99.90;;;;;;5075669;28;20023;-53
2023/07/01 02:09:52;;;;;;;4.45;3.63;;;15.40;99.90;;;;;;5092495;28;20024;-53
2023/07/01 02:12:18;;;;;;;4.78;3.20;;;15.40;99.90;;;;;;5093808;28;20028;-55
2023/07/01 02:14:43;;;;;;;5.38;3.05;;;15.40;99.90;;;;;;5093767;28;20054;-52
2023/07/01 02:17:09;;;;;;;3.03;2.72;;;15.40;99.90;;;;;;5093422;28;20381;-52
2023/07/01 02:19:34;;;;;;;7.05;3.45;;;15.40;99.90;;;;;;5093939;28;20074;-59
2023/07/01 02:22:00;;;;;;;2.85;2.65;;;15.40;99.90;;;;;;5094451;28;20031;-57
2023/07/01 02:24:25;;;;;;;5.35;3.00;;;15.40;99.90;;;;;;5093471;28;20028;-57
2023/07/01 02:26:51;;;;;;;4.40;3.00;;;15.40;99.90;;;;;;5093116;28;20028;-57
2023/07/01 02:29:16;;;;;;;4.10;3.33;;;15.50;99.90;;;;;;5093719;28;20066;-55
2023/07/01 02:31:42;;;;;;;4.55;3.47;;;15.50;99.90;;;;;;5093735;28;20032;-55
2023/07/01 02:34:07;;;;;;;6.47;4.10;;;15.40;99.90;;;;;;5093550;28;20464;-58
2023/07/01 02:36:33;;;;;;;5.20;4.30;;;15.50;99.90;;;;;;5093115;28;20028;-58
2023/07/01 02:38:58;;;;;;;10.20;4.85;;;15.50;99.90;;;;;;5093434;28;20031;-58
2023/07/01 02:41:24;;;;;;;14.82;4.40;;;15.50;99.90;;;;;;5093345;28;20035;-56
2023/07/01 02:43:49;;;;;;;9.57;4.18;;;15.50;99.90;;;;;;5093060;28;20035;-57
2023/07/01 02:46:15;;;;;;;6.32;3.97;;;15.50;99.90;;;;;;5074174;28;20016;-57
2023/07/01 02:48:40;;;;;;;5.88;3.83;;;15.40;99.90;;;;;;5093302;28;20016;-57
2023/07/01 02:51:07;;;;;;;6.80;3.83;;;15.40;99.90;;;;;;5093574;28;20020;-55
2023/07/01 02:53:32;;;;;;;5.72;3.80;;;15.30;99.90;;;;;;5093236;28;20020;-59
2023/07/01 02:55:58;;;;;;;7.65;4.22;;;15.30;99.90;;;;;;5092181;28;20024;-54
2023/07/01 02:58:24;;;;;;;3.60;3.30;;;15.20;99.90;;;;;;5093128;28;20055;-56
2023/07/01 03:00:50;;;;;;;4.78;3.55;;;15.20;99.90;;;;;;5093028;28;20028;-54
2023/07/01 03:03:16;;;;;;;4.82;3.58;;;15.20;99.90;;;;;;5091975;28;20024;-52
2023/07/01 03:05:42;;;;;;;8.00;3.63;;;15.20;99.90;;;;;;5092157;28;20043;-60
2023/07/01 03:08:07;;;;;;;3.92;3.58;;;15.20;99.90;;;;;;5092929;28;20020;-57
2023/07/01 03:10:33;;;;;;;3.55;3.25;;;15.20;99.90;;;;;;5092906;28;20020;-55
2023/07/01 03:12:59;;;;;;;4.30;3.55;;;15.20;99.90;;;;;;5092792;28;20021;-57
2023/07/01 03:15:25;;;;;;;6.53;3.45;;;15.20;99.90;;;;;;5091927;28;20499;-60
2023/07/01 03:17:52;;;;;;;4.30;3.88;;;15.10;99.90;;;;;;5092791;28;20035;-52
2023/07/01 03:20:24;;;;;;;4.30;3.55;;;15.20;99.90;;;;;;5092701;28;20074;-58
2023/07/01 03:22:56;;;;;;;5.10;3.63;;;15.10;99.90;;;;;;5092661;28;20028;-56
2023/07/01 03:25:21;;;;;;;9.98;3.60;;;15.10;99.90;;;;;;5091883;28;20028;-58
2023/07/01 03:27:47;;;;;;;6.85;3.65;;;15.10;99.90;;;;;;5092454;28;20020;-61
2023/07/01 03:30:15;;;;;;;3.38;3.17;;;15.10;99.90;;;;;;5092475;28;20024;-59
2023/07/01 03:32:42;;;;;;;5.97;3.22;;;15.10;99.90;;;;;;5074203;28;20020;-60
2023/07/01 03:35:11;;;;;;;7.78;3.28;;;15.10;99.90;;;;;;5091518;28;20111;-59
2023/07/01 03:37:42;;;;;;;4.63;3.83;;;15.20;99.90;;;;;;5092355;28;20031;-52
2023/07/01 03:40:10;;;;;;;4.05;3.25;;;15.20;99.90;;;;;;5092290;28;20039;-60
2023/07/01 03:42:37;;;;;;;6.57;3.70;;;15.30;99.90;;;;;;5092324;28;20025;-60
2023/07/01 03:45:04;;;;;;;3.78;3.47;;;15.20;99.90;;;;;;5091378;28;20020;-58
2023/07/01 03:47:30;;;;;;;5.30;3.67;;;15.20;99.90;;;;;;5092113;28;20016;-58
2023/07/01 03:49:55;;;;;;;6.43;3.65;;;15.20;99.90;;;;;;5092121;28;20522;-57
2023/07/01 03:52:21;;;;;;;7.28;4.00;;;15.20;99.90;;;;;;5092065;28;20024;-56
2023/07/01 03:54:46;;;;;;;8.20;3.97;;;15.20;99.90;;;;;;5091479;28;20571;-58
2023/07/01 03:57:12;;;;;;;4.20;3.72;;;15.20;99.90;;;;;;5091618;28;20039;-59
2023/07/01 03:59:37;;;;;;;8.80;4.20;;;15.20;99.90;;;;;;5092008;28;20141;-57
2023/07/01 04:02:03;;;;;;;5.38;3.90;;;15.20;99.90;;;;;;5091933;28;20024;-58
2023/07/01 04:04:29;;;;;;;4.97;4.15;;;15.10;99.90;;;;;;5090467;28;20028;-58
2023/07/01 04:06:54;;;;;;;4.30;3.83;;;15.10;99.90;;;;;;5091402;28;20070;-56
2023/07/01 04:09:20;;;;;;;10.57;5.05;;;15.10;99.90;;;;;;5091784;28;20093;-57
2023/07/01 04:11:46;;;;;;;6.32;4.65;;;15.10;99.90;;;;;;5091831;28;20027;-59
2023/07/01 04:14:15;;;;;;;6.07;4.60;;;15.10;99.90;;;;;;5073132;28;20028;-58
2023/07/01 04:16:43;;;;;;;6.85;4.97;;;15.20;99.90;;;;;;5091536;28;20032;-54
2023/07/01 04:19:08;;;;;;;10.70;4.70;;;15.20;99.90;;;;;;5091290;28;20437;-55
2023/07/01 04:21:34;;;;;;;8.50;5.30;;;15.20;99.90;;;;;;5091601;28;20024;-53
2023/07/01 04:24:03;;;;;;;7.15;5.28;;;15.20;99.90;;;;;;5091464;28;20028;-56
2023/07/01 04:26:29;;;;;;;6.05;4.50;;;15.30;99.90;;;;;;5090785;28;20039;-57
2023/07/01 04:28:55;;;;;;;5.80;4.82;;;15.30;99.90;;;;;;5091936;28;20476;-59
2023/07/01 04:31:21;;;;;;;9.40;5.22;;;15.30;99.90;;;;;;5091575;28;20039;-57
2023/07/01 04:33:46;;;;;;;4.70;4.30;;;15.40;99.90;;;;;;5091555;28;20038;-60
2023/07/01 04:36:12;;;;;;;6.63;4.63;;;15.40;99.90;;;;;;5090722;28;20024;-58
2023/07/01 04:38:38;;;;;;;6.53;4.28;;;15.40;99.90;;;;;;5073411;28;20035;-60
2023/07/01 04:41:05;;;;;;;5.70;4.75;;;15.50;99.90;;;;;;5091455;28;20023;-56
2023/07/01 04:43:31;;;;;;;9.05;4.63;;;15.50;99.90;;;;;;5091577;28;20483;-58
2023/07/01 04:45:56;;;;;;;8.60;4.53;;;15.50;99.90;;;;;;5072551;28;20028;-53
2023/07/01 04:48:22;;;;;;;10.20;4.72;;;15.60;99.90;;;;;;5091365;28;20054;-60
2023/07/01 04:50:47;;;;;;;8.90;4.90;;;15.60;99.90;;;;;;5091369;28;20028;-57
2023/07/01 04:53:13;;;;;;;12.88;4.72;;;15.70;99.90;;;;;;5091277;28;20032;-58
2023/07/01 04:55:38;;;;;;;5.97;4.10;;;15.80;99.90;;;;;;5090571;28;20024;-58
2023/07/01 04:58:04;;;;;;;6.45;4.20;;;15.90;99.90;;;;;;5091806;28;20028;-58
2023/07/01 05:00:29;;;;;;;10.07;4.57;;;16.00;99.90;;;;;;5091624;28;20081;-58
2023/07/01 05:02:55;;;;;;;6.32;4.63;;;16.10;99.90;;;;;;5090290;28;20408;-57
2023/07/01 05:05:20;;;;;;;11.13;4.63;;;16.30;99.90;;;;;;5090726;28;20047;-58
2023/07/01 05:07:46;;;;;;;8.88;4.07;;;16.80;99.90;;;;;;5091473;28;20053;-58
2023/07/01 05:10:12;;;;;;;7.88;4.88;;;17.60;99.90;;;;;;5091727;28;20581;-58
2023/07/01 05:12:37;;;;;;;6.28;3.42;;;18.40;99.90;;;;;;5074076;28;20048;-55
2023/07/01 05:15:03;;;;;;;5.93;3.42;;;19.00;99.90;;;;;;5091455;28;20472;-57
2023/07/01 05:17:28;;;;;;;7.10;3.40;;;19.80;99.90;;;;;;5092377;28;20051;-58
2023/07/01 05:19:54;;;;;;;8.23;3.28;;;20.20;99.90;;;;;;5091257;28;20606;-55
2023/07/01 05:22:19;;;;;;;10.10;3.65;;;20.70;99.90;;;;;;5091297;28;20039;-56
2023/07/01 05:24:45;;;;;;;6.07;3.75;;;20.90;99.90;;;;;;5090781;28;20391;-55
2023/07/01 05:27:10;;;;;;;6.35;3.33;;;21.00;99.90;;;;;;5090784;28;20267;-54
2023/07/01 05:29:36;;;;;;;7.38;3.10;;;21.50;99.80;;;;;;5091103;28;20403;-55
2023/07/01 05:32:03;;;;;;;7.15;3.17;;;22.20;98.30;;;;;;5092476;28;20021;-60
2023/07/01 05:34:29;;;;;;;3.20;2.90;;;22.90;97.30;;;;;;5094384;28;20021;-58
2023/07/01 05:36:55;;;;;;;4.53;2.83;;;23.50;96.00;;;;;;5094408;28;20089;-56
2023/07/01 05:39:21;;;;;;;6.68;2.55;;;24.10;95.40;;;;;;5094692;28;20460;-57
2023/07/01 05:41:47;;;;;;;5.93;2.58;;;24.40;94.20;;;;;;5094637;28;20062;-58
2023/07/01 05:44:12;;;;;;;5.82;2.60;;;24.90;93.40;;;;;;5093965;28;20081;-60
2023/07/01 05:46:40;;;;;;;4.75;2.58;;;24.90;92.30;;;;;;5094111;28;20021;-60
2023/07/01 05:49:06;;;;;;;4.22;2.70;;;25.00;91.90;;;;;;5094423;28;20077;-57
2023/07/01 05:51:33;;;;;;;3.58;2.28;;;24.70;91.80;;;;;;5094413;28;20398;-58
2023/07/01 05:53:58;;;;;;;4.18;2.25;;;24.70;92.40;;;;;;5094314;28;20052;-56
2023/07/01 05:56:24;;;;;;;5.95;2.55;;;24.70;91.90;;;;;;5093424;28;20073;-58
2023/07/01 05:58:50;;;;;;;4.40;2.75;;;24.90;91.90;;;;;;5094186;28;20024;-58
2023/07/01 06:01:16;;;;;;;4.03;2.22;;;25.30;91.50;;;;;;5094271;28;20027;-55
2023/07/01 06:03:41;;;;;;;3.30;1.98;;;25.20;90.90;;;;;;5074948;28;20028;-55
2023/07/01 06:06:07;;;;;;;2.88;1.98;;;25.20;91.10;;;;;;5093349;28;20372;-58
2023/07/01 06:08:32;;;;;;;4.25;2.17;;;25.60;91.00;;;;;;5094202;28;20048;-49
2023/07/01 06:10:58;;;;;;;2.47;1.77;;;25.90;90.60;;;;;;5093906;28;20070;-49
2023/07/01 06:13:23;;;;;;;2.75;1.77;;;26.40;90.10;;;;;;5094013;28;20563;-55
2023/07/01 06:15:49;;;;;;;5.00;1.98;;;27.00;88.10;;;;;;5092947;28;20032;-54
2023/07/01 06:18:14;;;;;;;3.58;1.77;;;27.40;87.20;;;;;;5093839;28;20149;-53
2023/07/01 06:20:40;;;;;;;4.57;2.85;;;27.50;85.60;;;;;;5093740;28;20028;-51
2023/07/01 06:23:05;;;;;;;3.30;1.73;;;27.20;85.50;;;;;;5093775;28;20133;-58
2023/07/01 06:25:31;;;;;;;2.35;1.85;;;27.20;86.30;;;;;;5092700;28;20024;-54
2023/07/01 06:27:56;;;;;;;5.00;1.65;;;27.20;86.30;;;;;;5093613;28;20039;-53
2023/07/01 06:30:22;;;;;;;5.43;2.17;;;27.10;85.90;;;;;;5093672;28;20379;-52
2023/07/01 06:32:47;;;;;;;5.93;2.28;;;26.30;86.30;;;;;;5093625;28;20028;-55
2023/07/01 06:35:13;;;;;;;4.10;2.17;;;25.80;86.00;;;;;;5092578;28;20059;-53
2023/07/01 06:37:38;;;;;;;5.53;2.53;;;25.30;87.70;;;;;;5093483;28;20028;-54
2023/07/01 06:40:04;;;;;;;2.78;2.10;;;25.10;88.70;;;;;;5093396;28;20024;-53
2023/07/01 06:42:30;;;;;;;1.65;1.50;;;24.60;88.80;;;;;;5092952;28;20112;-54
2023/07/01 06:44:55;;;;;;;10.13;2.45;;;24.20;89.80;;;;;;5092912;28;20107;-53
2023/07/01 06:47:21;;;;;;;3.33;1.90;;;23.90;90.40;;;;;;5092880;28;20028;-56
2023/07/01 06:49:47;;;;;;;7.68;1.98;;;24.00;90.70;;;;;;5093223;28;20111;-59
2023/07/01 06:52:12;;;;;;;4.07;1.92;;;24.00;90.90;;;;;;5093173;28;20380;-56
2023/07/01 06:54:38;;;;;;;5.05;2.08;;;23.80;90.40;;;;;;5092816;28;20533;-56
2023/07/01 06:57:03;;;;;;;6.10;2.45;;;24.10;90.40;;;;;;5092939;28;20506;-55
2023/07/01 06:59:29;;;;;;;3.67;1.92;;;24.80;87.90;;;;;;5093107;28;20024;-59
2023/07/01 07:01:54;;;;;;;5.32;2.00;;;25.40;85.80;;;;;;5074883;28;20035;-56
2023/07/01 07:04:20;;;;;;;4.20;1.73;;;26.00;84.50;;;;;;5091430;28;20020;-56
2023/07/01 07:06:45;;;;;;;3.30;1.92;;;26.30;83.60;;;;;;5092368;28;20020;-57
2023/07/01 07:09:11;;;;;;;5.97;1.83;;;25.80;83.50;;;;;;5092853;28;20030;-56
2023/07/01 07:11:38;;;;;;;3.03;1.80;;;26.00;83.30;;;;;;5092862;28;20028;-57
2023/07/01 07:14:03;;;;;;;4.05;1.92;;;26.00;82.90;;;;;;5092795;28;20407;-59
2023/07/01 07:16:29;;;;;;;6.03;1.80;;;25.90;82.10;;;;;;5092434;28;20119;-54
2023/07/01 07:18:55;;;;;;;5.30;1.55;;;25.60;83.80;;;;;;5092862;28;20491;-55
2023/07/01 07:21:20;;;;;;;3.83;2.20;;;25.80;84.10;;;;;;5092740;28;20050;-56
2023/07/01 07:23:46;;;;;;;6.47;2.08;;;25.60;84.00;;;;;;5092600;28;20024;-56
2023/07/01 07:26:14;;;;;;;7.03;2.55;;;25.30;83.30;;;;;;5091827;28;20024;-54
2023/07/01 07:28:39;;;;;;;2.63;1.85;;;25.30;84.10;;;;;;5092960;28;20020;-54
2023/07/01 07:31:05;;;;;;;7.95;2.65;;;25.20;84.10;;;;;;5092856;28;20050;-55
2023/07/01 07:33:30;;;;;;;1.90;1.80;;;25.20;84.70;;;;;;5092584;28;20055;-57
2023/07/01 07:35:56;;;;;;;7.55;2.13;;;24.60;85.10;;;;;;5091656;28;20032;-57
2023/07/01 07:38:21;;;;;;;3.38;2.03;;;24.00;87.00;;;;;;5092581;28;20496;-55
2023/07/01 07:40:47;;;;;;;3.50;2.33;;;23.50;88.20;;;;;;5092782;28;20104;-55
2023/07/01 07:43:12;;;;;;;5.50;2.17;;;23.10;89.50;;;;;;5092528;28;20051;-58
2023/07/01 07:45:38;;;;;;;10.25;2.30;;;22.90;90.40;;;;;;5091218;28;20031;-54
2023/07/01 07:48:05;;;;;;;2.67;2.30;;;22.90;91.00;;;;;;5092317;28;20043;-55
2023/07/01 07:50:31;;;;;;;8.23;2.00;;;23.00;90.80;;;;;;5092086;28;20031;-57
2023/07/01 07:52:57;;;;;;;7.00;1.80;;;23.00;90.50;;;;;;5088608;28;20028;-58
2023/07/01 07:55:22;;;;;;;4.85;2.40;;;22.90;91.10;;;;;;5085064;28;20024;-54
2023/07/01 07:57:48;;;;;;;3.97;2.30;;;22.50;91.40;;;;;;5085740;28;20436;-54
2023/07/01 08:00:14;;;;;;;6.57;2.40;;;22.20;92.00;;;;;;5073979;28;20396;-57
2023/07/01 08:02:44;;;;;;;4.43;2.58;;;22.30;92.40;;;;;;5068364;28;20081;-56
2023/07/01 08:05:14;;;;;;;3.67;2.28;;;22.30;92.30;;;;;;5079741;28;20399;-58
2023/07/01 08:07:40;;;;;;;3.53;2.55;;;22.40;92.50;;;;;;5075994;28;20032;-54
2023/07/01 08:10:06;;;;;;;3.92;2.00;;;23.10;92.10;;;;;;5087329;28;20016;-53
2023/07/01 08:12:31;;;;;;;8.25;2.83;;;23.90;91.30;;;;;;5081083;28;20020;-54
2023/07/01 08:14:57;;;;;;;3.92;1.80;;;24.40;90.30;;;;;;5091646;28;20035;-58
2023/07/01 08:17:22;;;;;;;2.78;2.20;;;24.50;90.30;;;;;;5075242;28;20551;-56
2023/07/01 08:19:47;;;;;;;3.90;2.05;;;24.70;90.30;;;;;;5071272;28;20035;-56
2023/07/01 08:22:13;;;;;;;6.07;1.85;;;25.00;90.00;;;;;;5071453;28;20090;-56
2023/07/01 08:24:39;;;;;;;2.58;1.73;;;24.80;90.00;;;;;;5070610;28;20036;-55
2023/07/01 08:27:04;;;;;;;3.92;2.13;;;24.60;90.40;;;;;;5071000;28;20031;-56
2023/07/01 08:29:30;;;;;;;3.50;1.77;;;23.90;90.60;;;;;;5086660;28;20023;-56
2023/07/01 08:31:56;;;;;;;1.42;1.15;;;23.20;91.70;;;;;;5091584;28;20050;-54
2023/07/01 08:34:21;;;;;;;1.77;1.50;;;22.40;92.30;;;;;;5090938;28;20031;-57
2023/07/01 08:36:46;;;;;;;10.50;2.13;;;22.00;93.40;;;;;;5090972;28;20444;-54
2023/07/01 08:39:12;;;;;;;5.97;1.90;;;21.70;93.80;;;;;;5071995;28;20488;-57
2023/07/01 08:41:46;;;;;;;4.28;1.40;;;21.50;94.20;;;;;;5071099;28;20039;-57
2023/07/01 08:44:13;;;;;;;6.28;2.35;;;21.30;94.70;;;;;;5052757;28;20033;-55
2023/07/01 08:46:40;;;;;;;3.55;1.58;;;21.10;95.20;;;;;;5070662;28;20082;-53
2023/07/01 08:49:06;;;;;;;3.95;1.60;;;20.90;95.60;;;;;;5070912;28;20127;-56
2023/07/01 08:51:37;;;;;;;2.05;1.30;;;20.90;96.10;;;;;;5085030;28;20057;-56
2023/07/01 08:54:04;;;;;;;4.13;1.48;;;20.90;96.20;;;;;;5100412;28;20556;-58
2023/07/01 08:56:30;;;;;;;5.07;1.42;;;20.90;96.60;;;;;;5101266;28;20056;-56
2023/07/01 08:58:56;;;;;;;3.80;1.40;;;21.00;96.60;;;;;;5111467;28;20458;-55
2023/07/01 09:01:22;;;;;;;2.97;1.35;;;20.90;96.50;;;;;;5111474;28;20103;-57
2023/07/01 09:03:48;;;;;;;6.55;1.52;;;20.80;97.00;;;;;;5111466;28;20062;-55
2023/07/01 09:06:13;;;;;;;4.13;1.65;;;20.80;97.40;;;;;;5112579;28;20030;-57
2023/07/01 09:08:39;;;;;;;3.75;1.10;;;20.90;97.40;;;;;;5085930;28;20020;-57
2023/07/01 09:11:15;;;;;;;3.40;1.30;;;20.90;97.30;;;;;;5093266;28;20028;-56
2023/07/01 09:13:41;;;;;;;4.40;1.67;;;20.90;97.80;;;;;;5097420;28;20012;-58
2023/07/01 09:16:07;;;;;;;1.27;1.17;;;21.00;97.90;;;;;;5092338;28;20470;-54
2023/07/01 09:18:33;;;;;;;1.50;1.35;;;21.00;98.10;;;;;;5079233;28;20112;-55
2023/07/01 09:20:59;;;;;;;3.80;1.65;;;21.10;98.30;;;;;;5076463;28;20028;-54
2023/07/01 09:23:28;;;;;;;2.75;1.30;;;21.20;98.10;;;;;;5093199;28;20399;-54
2023/07/01 09:26:14;;;;;;;4.78;1.30;;;21.30;98.10;;;;;;5073693;28;20052;-53
2023/07/01 09:28:41;;;;;;;3.90;1.83;;;21.20;97.80;;;;;;5077344;28;20024;-60
2023/07/01 09:31:12;;;;;;;3.72;1.35;;;21.20;98.30;;;;;;5085119;28;20029;-56
2023/07/01 09:33:39;;;;;;;9.27;1.50;;;21.20;98.40;;;;;;5082471;28;20020;-59
2023/07/01 09:36:07;;;;;;;2.40;1.10;;;21.20;98.70;;;;;;5098364;28;20020;-60
2023/07/01 09:38:34;;;;;;;3.58;1.20;;;21.10;99.10;;;;;;5106476;28;20023;-58
2023/07/01 09:41:13;;;;;;;1.30;1.15;;;21.20;99.20;;;;;;5103824;28;20024;-60
2023/07/01 09:43:40;;;;;;;4.22;1.63;;;21.30;99.10;;;;;;5094834;28;20025;-59
2023/07/01 09:46:06;;;;;;;3.95;1.00;;;21.30;99.00;;;;;;5093515;28;20024;-59
2023/07/01 09:48:33;;;;;;;10.07;1.40;;;21.40;99.50;;;;;;5094320;28;20024;-59
2023/07/01 09:51:03;;;;;;;6.63;1.55;;;21.40;99.10;;;;;;5094421;28;20436;-59
2023/07/01 09:53:32;;;;;;;4.05;1.15;;;21.30;99.20;;;;;;5098134;28;20470;-59
2023/07/01 09:56:01;;;;;;;2.05;1.10;;;21.30;99.70;;;;;;5106487;28;20039;-58
2023/07/01 09:58:27;;;;;;;2.83;1.35;;;21.20;99.60;;;;;;5107639;28;20063;-57
2023/07/01 10:00:52;;;;;;;19.65;12.05;;;21.20;99.90;;;;;;5084549;28;21486;-55
2023/07/01 10:03:19;;;;;;;3.10;2.80;;;21.20;99.80;;;;;;5101283;28;20031;-57
2023/07/01 10:05:46;;;;;;;8.43;3.65;;;21.30;99.90;;;;;;5107152;28;20035;-56
2023/07/01 10:08:11;;;;;;;1.33;1.23;;;21.30;99.90;;;;;;5087508;28;20080;-56
2023/07/01 10:10:37;;;;;;;2.88;1.30;;;21.40;99.90;;;;;;5102449;28;20024;-54
2023/07/01 10:13:05;;;;;;;3.05;1.38;;;21.20;99.90;;;;;;5095925;28;20012;-55
2023/07/01 10:15:33;;;;;;;2.55;1.45;;;21.00;99.90;;;;;;5105196;28;20073;-58
2023/07/01 10:17:59;;;;;;;3.13;1.80;;;20.90;99.90;;;;;;5113853;28;20538;-54
2023/07/01 10:20:32;;;;;;;8.20;1.50;;;20.80;99.90;;;;;;5093314;28;20066;-54
2023/07/01 10:22:59;;;;;;;3.33;1.20;;;20.70;99.90;;;;;;5073633;28;20065;-56
2023/07/01 10:25:33;;;;;;;4.45;1.48;;;20.70;99.90;;;;;;5061388;28;20024;-55
2023/07/01 10:27:59;;;;;;;6.47;1.27;;;20.70;99.90;;;;;;5093119;28;20023;-58
2023/07/01 10:30:25;;;;;;;7.78;1.65;;;20.70;99.90;;;;;;5101726;28;20019;-58
2023/07/01 10:32:51;;;;;;;1.23;1.13;;;20.70;99.90;;;;;;5088875;28;20055;-55
2023/07/01 10:35:17;;;;;;;1.10;1.10;;;20.70;99.90;;;;;;5094255;28;20059;-53
2023/07/01 10:38:04;;;;;;;1.52;1.40;;;20.70;99.90;;;;;;5108489;28;20525;-57
2023/07/01 10:40:29;;;;;;;5.25;1.40;;;20.70;99.90;;;;;;5093429;28;20024;-51
2023/07/01 10:43:20;;;;;;;1.30;1.20;;;20.60;99.90;;;;;;5091901;28;20039;-60
2023/07/01 10:45:46;;;;;;;2.05;1.85;;;20.60;99.90;;;;;;5090670;28;20028;-57
2023/07/01 10:48:13;;;;;;;5.18;1.33;;;20.40;99.90;;;;;;5088533;28;20081;-61
2023/07/01 10:51:12;;;;;;;1.95;1.40;;;20.40;99.90;;;;;;5072793;28;20095;-55
2023/07/01 10:54:00;;;;;;;2.90;1.50;;;20.20;99.90;;;;;;5037433;28;20320;-59
2023/07/01 10:56:29;;;;;;;2.50;1.20;;;20.20;99.90;;;;;;5071478;28;20025;-60
2023/07/01 10:59:16;;;;;;;1.80;1.10;;;20.20;99.90;;;;;;5072641;28;20031;-61
2023/07/01 11:01:44;;;;;;;2.97;1.50;;;20.20;99.90;;;;;;5077758;28;20027;-59
2023/07/01 11:04:09;;;;;;;2.05;1.38;;;20.10;99.90;;;;;;5083810;28;20376;-61
2023/07/01 11:06:53;;;;;;;2.72;1.73;;;20.10;99.90;;;;;;5071944;28;20020;-55
2023/07/01 11:09:32;;;;;;;1.75;1.55;;;20.00;99.90;;;;;;5087128;28;20032;-60
2023/07/01 11:11:59;;;;;;;4.75;1.40;;;19.90;99.90;;;;;;5092779;28;20013;-59
2023/07/01 11:14:32;;;;;;;3.30;1.52;;;19.90;99.90;;;;;;5084664;28;20024;-56
2023/07/01 11:17:09;;;;;;;2.83;2.15;;;20.00;99.90;;;;;;5072788;28;20565;-52
2023/07/01 11:19:36;;;;;;;5.68;5.10;;;20.10;99.90;;;;;;5054412;28;20488;-51
2023/07/01 11:22:02;;;;;;;2.08;1.67;;;20.10;99.90;;;;;;5072338;28;20029;-55
2023/07/01 11:24:29;;;;;;;7.45;4.72;;;20.10;99.90;;;;;;5072002;28;20033;-52
2023/07/01 11:27:03;;;;;;;4.45;1.65;;;20.10;99.90;;;;;;5088488;28;20104;-54
2023/07/01 11:29:29;;;;;;;7.68;1.48;;;20.20;99.90;;;;;;5091144;28;20055;-54
2023/07/01 11:31:59;;;;;;;2.70;1.23;;;20.20;99.90;;;;;;5092621;28;20017;-54
2023/07/01 11:34:26;;;;;;;8.52;2.00;;;20.20;99.90;;;;;;5092453;28;20028;-55
2023/07/01 11:36:53;;;;;;;5.22;1.20;;;20.20;99.90;;;;;;5093295;28;20028;-54
2023/07/01 11:39:19;;;;;;;5.70;1.10;;;20.20;99.90;;;;;;5091467;28;20096;-54
2023/07/01 11:41:56;;;;;;;1.83;1.15;;;20.30;99.90;;;;;;5091598;28;20066;-52
2023/07/01 11:44:24;;;;;;;4.32;1.33;;;20.50;99.90;;;;;;5091725;28;20127;-54
2023/07/01 11:46:49;;;;;;;1.83;1.42;;;20.60;99.90;;;;;;5085749;28;20069;-55
2023/07/01 11:49:16;;;;;;;2.92;2.00;;;20.60;99.90;;;;;;5076365;28;20108;-54
2023/07/01 11:51:43;;;;;;;2.17;1.33;;;20.70;99.90;;;;;;5080555;28;20086;-52
2023/07/01 11:54:09;;;;;;;2.22;1.48;;;20.70;99.90;;;;;;5071830;28;20044;-56
2023/07/01 11:56:34;;;;;;;1.33;1.10;;;20.70;99.90;;;;;;5076013;28;20066;-60
2023/07/01 11:59:00;;;;;;;1.73;1.55;;;20.70;99.90;;;;;;5077903;28;20032;-54
2023/07/01 12:01:27;;;;;;;1.50;1.17;;;20.70;99.90;;;;;;5072403;28;20071;-54
2023/07/01 12:03:53;;;;;;;2.55;1.40;;;20.70;99.90;;;;;;5053434;28;20024;-48
2023/07/01 12:06:20;;;;;;;4.60;1.40;;;20.50;99.90;;;;;;5095958;28;20019;-56
2023/07/01 12:08:53;;;;;;;2.22;1.48;;;20.50;99.90;;;;;;5105171;28;20019;-55
2023/07/01 12:11:20;;;;;;;1.70;1.50;;;20.50;99.90;;;;;;5080086;28;20019;-54
2023/07/01 12:13:46;;;;;;;7.35;1.70;;;20.70;99.90;;;;;;5096179;28;20016;-56
2023/07/01 12:16:12;;;;;;;1.67;1.40;;;20.60;99.90;;;;;;5080816;28;20024;-52
2023/07/01 12:18:38;;;;;;;3.17;1.67;;;20.70;99.90;;;;;;5092635;28;20080;-51
2023/07/01 12:21:04;;;;;;;3.40;1.70;;;20.60;99.90;;;;;;5097810;28;20012;-54
2023/07/01 12:23:38;;;;;;;2.03;1.45;;;20.70;99.90;;;;;;5082015;28;20028;-56
2023/07/01 12:26:03;;;;;;;3.97;1.27;;;20.70;99.90;;;;;;5098995;28;20034;-54
2023/07/01 12:28:29;;;;;;;3.38;1.60;;;20.80;99.90;;;;;;5084309;28;20464;-54
2023/07/01 12:30:54;;;;;;;4.47;1.10;;;20.70;99.90;;;;;;5093413;28;20024;-56
2023/07/01 12:33:20;;;;;;;5.85;1.30;;;20.60;99.90;;;;;;5111896;28;20039;-55
2023/07/01 12:35:45;;;;;;;4.65;2.33;;;20.70;99.90;;;;;;5110950;28;20364;-54
2023/07/01 12:38:14;;;;;;;1.77;1.40;;;20.70;99.90;;;;;;5111815;28;20055;-56
2023/07/01 12:40:40;;;;;;;6.03;1.75;;;20.70;99.90;;;;;;5112692;28;20026;-55
2023/07/01 12:43:07;;;;;;;5.28;1.73;;;20.70;99.90;;;;;;5115969;28;20024;-54
2023/07/01 12:45:33;;;;;;;6.22;1.77;;;20.70;99.90;;;;;;5103415;28;20035;-54